KCOT/COT METAR and TAF weather

Enter ICAO airport designator
Station Type Date Time Source
KCOT METAR 2024/06/15 23:53 UTC NOAA

KCOT 152353Z AUTO 13012KT 10SM BKN085 39/17 A2974 RMK AO2 SLP062 T03890167 10406 20344 56017


Station Type Date Time Source
KCOT Decoded METAR 2024/06/15 23:53 UTC NOAA

COTULLA-LASALLE COUNTY AIRPORT , TX, United States (KCOT) 28-27N 099-13W 140M
Jun 15, 2024 - 07:53 PM EDT / 2024.06.15 2353 UTC
Wind: from the SE (130 degrees) at 14 MPH (12 KT):0
Visibility: 10 mile(s):0
Sky conditions: mostly cloudy
Temperature: 102.0 F (38.9 C)
Heat index: 103.8 F (39.9 C):1
Dew Point: 62.1 F (16.7 C)
Relative Humidity: 27%
Pressure (altimeter): 29.74 in. Hg (1007 hPa)
Pressure tendency: 0.05 inches (1.7 hPa) lower than three hours ago
ob: KCOT 152353Z AUTO 13012KT 10SM BKN085 39/17 A2974 RMK AO2 SLP062 T03890167 10406 20344 56017
cycle: 0

Station Type Date Time Source
KCOT TAF 2024/06/15 18:33 UTC NOAA